CAY weather

Cayenne-Rochambeau Airport
Cayenne / Rochambeau, Cayenne, French Guiana

Public forecast

Using degrees Celsius for public forecast. Weather courtesy of forecast.io.

Current aviation weather report (METAR) for Cayenne-Rochambeau Airport

Retrieved 2020/08/07 18:30 UTC (23 minutes ago):

SOCA 071830Z AUTO VRB03KT 9999 FEW019/// SCT140/// ///CB 27/25 Q1012 TEMPO 2000 SHRA

Aviation forecast (TAF) for Cayenne-Rochambeau Airport

Retrieved 2020/08/07 18:36 UTC (17 minutes ago):

TAF SOCA 071600Z 0718/0818 09008KT 9999 SCT026 SCT100 TEMPO 0718/0722 2000 SHRA FEW012TCU PROB40 TEMPO 0718/0722 FEW010CB PROB30 TEMPO 0718/0722 TSRA FEW010CB FM072200 VRB02KT 9999 SCT020 SCT100 PROB30 TEMPO 0722/0818 SHRA FEW012TCU PROB40 TEMPO 0807/0811 1200 BR BKN001 FM081400 08010KT 9999 SCT025 SCT100